sensor_id;sensor_type;location;lat;lon;timestamp;temperature;humidity
26907;DHT22;14472;56.880;16.658;2023-06-10T00:01:58;13.80;1.00
26907;DHT22;14472;56.880;16.658;2023-06-10T00:04:25;13.70;1.00
26907;DHT22;14472;56.880;16.658;2023-06-10T00:06:51;13.70;1.00
26907;DHT22;14472;56.880;16.658;2023-06-10T00:09:17;13.80;1.00
26907;DHT22;14472;56.880;16.658;2023-06-10T00:11:44;13.80;1.00
26907;DHT22;14472;56.880;16.658;2023-06-10T00:14:10;13.80;1.00
26907;DHT22;14472;56.880;16.658;2023-06-10T00:16:36;13.80;1.00
26907;DHT22;14472;56.880;16.658;2023-06-10T00:19:03;13.80;1.00
26907;DHT22;14472;56.880;16.658;2023-06-10T00:21:30;13.70;1.00
26907;DHT22;14472;56.880;16.658;2023-06-10T00:24:05;13.70;1.00
26907;DHT22;14472;56.880;16.658;2023-06-10T00:26:32;13.70;1.00
26907;DHT22;14472;56.880;16.658;2023-06-10T00:28:59;13.70;1.00
26907;DHT22;14472;56.880;16.658;2023-06-10T00:31:25;13.70;1.00
26907;DHT22;14472;56.880;16.658;2023-06-10T00:33:54;13.70;1.00
26907;DHT22;14472;56.880;16.658;2023-06-10T00:36:20;13.70;1.00
26907;DHT22;14472;56.880;16.658;2023-06-10T00:38:46;13.70;1.00
26907;DHT22;14472;56.880;16.658;2023-06-10T00:41:12;13.60;1.00
26907;DHT22;14472;56.880;16.658;2023-06-10T00:43:37;13.70;1.00
26907;DHT22;14472;56.880;16.658;2023-06-10T00:46:03;13.70;1.00
26907;DHT22;14472;56.880;16.658;2023-06-10T00:48:29;13.60;1.00
26907;DHT22;14472;56.880;16.658;2023-06-10T00:50:55;13.70;1.00
26907;DHT22;14472;56.880;16.658;2023-06-10T00:53:22;13.70;1.00
26907;DHT22;14472;56.880;16.658;2023-06-10T00:55:48;13.70;1.00
26907;DHT22;14472;56.880;16.658;2023-06-10T00:58:14;13.70;1.00
26907;DHT22;14472;56.880;16.658;2023-06-10T01:00:41;13.70;1.00
26907;DHT22;14472;56.880;16.658;2023-06-10T01:03:06;13.70;1.00
26907;DHT22;14472;56.880;16.658;2023-06-10T01:05:40;13.60;1.00
26907;DHT22;14472;56.880;16.658;2023-06-10T01:08:12;13.60;1.00
26907;DHT22;14472;56.880;16.658;2023-06-10T01:10:57;13.60;1.00
26907;DHT22;14472;56.880;16.658;2023-06-10T01:13:25;13.70;1.00
26907;DHT22;14472;56.880;16.658;2023-06-10T01:15:58;13.70;1.00
26907;DHT22;14472;56.880;16.658;2023-06-10T01:18:30;13.60;1.00
26907;DHT22;14472;56.880;16.658;2023-06-10T01:20:56;13.60;1.00
26907;DHT22;14472;56.880;16.658;2023-06-10T01:23:23;13.60;1.00
26907;DHT22;14472;56.880;16.658;2023-06-10T01:26:05;13.60;1.00
26907;DHT22;14472;56.880;16.658;2023-06-10T01:28:58;13.60;1.00
26907;DHT22;14472;56.880;16.658;2023-06-10T01:31:30;13.60;1.00
26907;DHT22;14472;56.880;16.658;2023-06-10T01:34:05;13.60;1.00
26907;DHT22;14472;56.880;16.658;2023-06-10T01:36:33;13.60;1.00
26907;DHT22;14472;56.880;16.658;2023-06-10T01:39:00;13.60;1.00
26907;DHT22;14472;56.880;16.658;2023-06-10T01:41:28;13.60;1.00
26907;DHT22;14472;56.880;16.658;2023-06-10T01:43:55;13.60;1.00
26907;DHT22;14472;56.880;16.658;2023-06-10T01:46:20;13.60;1.00
26907;DHT22;14472;56.880;16.658;2023-06-10T01:48:47;13.60;1.00
26907;DHT22;14472;56.880;16.658;2023-06-10T01:51:12;13.50;1.00
26907;DHT22;14472;56.880;16.658;2023-06-10T01:53:38;13.60;1.00
26907;DHT22;14472;56.880;16.658;2023-06-10T01:56:04;13.60;1.00
26907;DHT22;14472;56.880;16.658;2023-06-10T01:58:30;13.60;1.00
26907;DHT22;14472;56.880;16.658;2023-06-10T02:00:56;13.60;1.00
26907;DHT22;14472;56.880;16.658;2023-06-10T02:03:22;13.50;1.00
26907;DHT22;14472;56.880;16.658;2023-06-10T02:05:49;13.50;1.00
26907;DHT22;14472;56.880;16.658;2023-06-10T02:08:14;13.50;1.00
26907;DHT22;14472;56.880;16.658;2023-06-10T02:10:40;13.50;1.00
26907;DHT22;14472;56.880;16.658;2023-06-10T02:13:06;13.50;1.00
26907;DHT22;14472;56.880;16.658;2023-06-10T02:15:32;13.60;1.00
26907;DHT22;14472;56.880;16.658;2023-06-10T02:17:59;13.50;1.00
26907;DHT22;14472;56.880;16.658;2023-06-10T02:20:26;13.60;1.00
26907;DHT22;14472;56.880;16.658;2023-06-10T02:22:52;13.60;1.00
26907;DHT22;14472;56.880;16.658;2023-06-10T02:25:18;13.50;1.00
26907;DHT22;14472;56.880;16.658;2023-06-10T02:27:43;13.50;1.00
26907;DHT22;14472;56.880;16.658;2023-06-10T02:30:09;13.50;1.00
26907;DHT22;14472;56.880;16.658;2023-06-10T02:32:36;13.50;1.00
26907;DHT22;14472;56.880;16.658;2023-06-10T02:35:02;13.50;1.00
26907;DHT22;14472;56.880;16.658;2023-06-10T02:37:27;13.50;1.00
26907;DHT22;14472;56.880;16.658;2023-06-10T02:39:53;13.50;1.00
26907;DHT22;14472;56.880;16.658;2023-06-10T02:42:19;13.50;1.00
26907;DHT22;14472;56.880;16.658;2023-06-10T02:44:45;13.60;1.00
26907;DHT22;14472;56.880;16.658;2023-06-10T02:47:10;13.60;1.00
26907;DHT22;14472;56.880;16.658;2023-06-10T02:49:36;13.50;1.00
26907;DHT22;14472;56.880;16.658;2023-06-10T02:52:02;13.60;1.00
26907;DHT22;14472;56.880;16.658;2023-06-10T02:54:28;13.60;1.00
26907;DHT22;14472;56.880;16.658;2023-06-10T02:56:54;13.50;1.00
26907;DHT22;14472;56.880;16.658;2023-06-10T02:59:21;13.60;1.00
26907;DHT22;14472;56.880;16.658;2023-06-10T03:01:47;13.60;1.00
26907;DHT22;14472;56.880;16.658;2023-06-10T03:04:13;13.60;1.00
26907;DHT22;14472;56.880;16.658;2023-06-10T03:06:40;13.60;1.00
26907;DHT22;14472;56.880;16.658;2023-06-10T03:09:11;13.60;1.00
26907;DHT22;14472;56.880;16.658;2023-06-10T03:11:36;13.60;1.00
26907;DHT22;14472;56.880;16.658;2023-06-10T03:14:02;13.70;1.00
26907;DHT22;14472;56.880;16.658;2023-06-10T03:16:28;13.60;1.00
26907;DHT22;14472;56.880;16.658;2023-06-10T03:18:55;13.70;1.00
26907;DHT22;14472;56.880;16.658;2023-06-10T03:21:21;13.70;1.00
26907;DHT22;14472;56.880;16.658;2023-06-10T03:23:47;13.70;1.00
26907;DHT22;14472;56.880;16.658;2023-06-10T03:26:13;13.80;1.00
26907;DHT22;14472;56.880;16.658;2023-06-10T03:28:39;13.80;1.00
26907;DHT22;14472;56.880;16.658;2023-06-10T03:31:05;13.80;1.00
26907;DHT22;14472;56.880;16.658;2023-06-10T03:33:31;13.80;1.00
26907;DHT22;14472;56.880;16.658;2023-06-10T03:35:58;13.90;1.00
26907;DHT22;14472;56.880;16.658;2023-06-10T03:38:24;13.90;1.00
26907;DHT22;14472;56.880;16.658;2023-06-10T03:40:49;13.90;1.00
26907;DHT22;14472;56.880;16.658;2023-06-10T03:43:15;13.90;1.00
26907;DHT22;14472;56.880;16.658;2023-06-10T03:45:41;13.90;1.00
26907;DHT22;14472;56.880;16.658;2023-06-10T03:48:07;14.00;1.00
26907;DHT22;14472;56.880;16.658;2023-06-10T03:50:34;14.00;1.00
26907;DHT22;14472;56.880;16.658;2023-06-10T03:53:00;14.00;1.00
26907;DHT22;14472;56.880;16.658;2023-06-10T03:55:26;14.10;1.00
26907;DHT22;14472;56.880;16.658;2023-06-10T03:57:51;14.10;1.00
26907;DHT22;14472;56.880;16.658;2023-06-10T04:00:17;14.10;1.00
26907;DHT22;14472;56.880;16.658;2023-06-10T04:02:44;14.20;1.00
26907;DHT22;14472;56.880;16.658;2023-06-10T04:05:16;14.20;1.00
26907;DHT22;14472;56.880;16.658;2023-06-10T04:07:42;14.30;1.00
26907;DHT22;14472;56.880;16.658;2023-06-10T04:10:10;14.30;1.00
26907;DHT22;14472;56.880;16.658;2023-06-10T04:12:37;14.30;1.00
26907;DHT22;14472;56.880;16.658;2023-06-10T04:15:04;14.30;1.00
26907;DHT22;14472;56.880;16.658;2023-06-10T04:17:30;14.40;1.00
26907;DHT22;14472;56.880;16.658;2023-06-10T04:19:56;14.40;1.00
26907;DHT22;14472;56.880;16.658;2023-06-10T04:22:22;14.40;1.00
26907;DHT22;14472;56.880;16.658;2023-06-10T04:24:50;14.50;1.00
26907;DHT22;14472;56.880;16.658;2023-06-10T04:27:16;14.50;1.00
26907;DHT22;14472;56.880;16.658;2023-06-10T04:29:41;14.50;1.00
26907;DHT22;14472;56.880;16.658;2023-06-10T04:32:07;14.60;1.00
26907;DHT22;14472;56.880;16.658;2023-06-10T04:34:33;14.60;1.00
26907;DHT22;14472;56.880;16.658;2023-06-10T04:36:59;14.60;1.00
26907;DHT22;14472;56.880;16.658;2023-06-10T04:39:25;14.70;1.00
26907;DHT22;14472;56.880;16.658;2023-06-10T04:41:51;14.70;1.00
26907;DHT22;14472;56.880;16.658;2023-06-10T04:44:17;14.80;1.00
26907;DHT22;14472;56.880;16.658;2023-06-10T04:46:44;14.80;1.00
26907;DHT22;14472;56.880;16.658;2023-06-10T04:49:10;14.80;1.00
26907;DHT22;14472;56.880;16.658;2023-06-10T04:51:35;14.80;1.00
26907;DHT22;14472;56.880;16.658;2023-06-10T04:54:01;14.90;1.00
26907;DHT22;14472;56.880;16.658;2023-06-10T04:56:29;14.90;1.00
26907;DHT22;14472;56.880;16.658;2023-06-10T04:58:56;15.00;1.00
26907;DHT22;14472;56.880;16.658;2023-06-10T05:01:22;15.00;1.00
26907;DHT22;14472;56.880;16.658;2023-06-10T05:03:48;15.10;1.00
26907;DHT22;14472;56.880;16.658;2023-06-10T05:06:14;15.10;1.00
26907;DHT22;14472;56.880;16.658;2023-06-10T05:08:40;15.10;1.00
26907;DHT22;14472;56.880;16.658;2023-06-10T05:11:05;15.20;1.00
26907;DHT22;14472;56.880;16.658;2023-06-10T05:13:32;15.20;1.00
26907;DHT22;14472;56.880;16.658;2023-06-10T05:15:58;15.20;1.00
26907;DHT22;14472;56.880;16.658;2023-06-10T05:18:24;15.30;1.00
26907;DHT22;14472;56.880;16.658;2023-06-10T05:20:50;15.20;1.00
26907;DHT22;14472;56.880;16.658;2023-06-10T05:23:15;15.30;1.00
26907;DHT22;14472;56.880;16.658;2023-06-10T05:25:41;15.30;1.00
26907;DHT22;14472;56.880;16.658;2023-06-10T05:28:08;15.40;1.00
26907;DHT22;14472;56.880;16.658;2023-06-10T05:30:37;15.30;1.00
26907;DHT22;14472;56.880;16.658;2023-06-10T05:33:04;15.40;1.00
26907;DHT22;14472;56.880;16.658;2023-06-10T05:35:30;15.50;1.00
26907;DHT22;14472;56.880;16.658;2023-06-10T05:37:55;15.50;1.00
26907;DHT22;14472;56.880;16.658;2023-06-10T05:40:21;15.50;1.00
26907;DHT22;14472;56.880;16.658;2023-06-10T05:42:47;15.50;1.00
26907;DHT22;14472;56.880;16.658;2023-06-10T05:45:13;15.50;1.00
26907;DHT22;14472;56.880;16.658;2023-06-10T05:47:40;15.50;1.00
26907;DHT22;14472;56.880;16.658;2023-06-10T05:50:06;15.60;1.00
26907;DHT22;14472;56.880;16.658;2023-06-10T05:52:35;15.60;1.00
26907;DHT22;14472;56.880;16.658;2023-06-10T05:55:03;15.60;1.00
26907;DHT22;14472;56.880;16.658;2023-06-10T05:57:29;15.60;1.00
26907;DHT22;14472;56.880;16.658;2023-06-10T05:59:55;15.60;1.00
26907;DHT22;14472;56.880;16.658;2023-06-10T06:02:20;15.70;1.00
26907;DHT22;14472;56.880;16.658;2023-06-10T06:04:46;15.80;1.00
26907;DHT22;14472;56.880;16.658;2023-06-10T06:07:12;15.90;1.00
26907;DHT22;14472;56.880;16.658;2023-06-10T06:09:38;16.00;1.00
26907;DHT22;14472;56.880;16.658;2023-06-10T06:12:04;16.00;1.00
26907;DHT22;14472;56.880;16.658;2023-06-10T06:14:32;16.10;1.00
26907;DHT22;14472;56.880;16.658;2023-06-10T06:16:57;16.10;1.00
26907;DHT22;14472;56.880;16.658;2023-06-10T06:19:23;16.10;1.00
26907;DHT22;14472;56.880;16.658;2023-06-10T06:21:49;16.10;1.00
26907;DHT22;14472;56.880;16.658;2023-06-10T06:24:16;16.20;1.00
26907;DHT22;14472;56.880;16.658;2023-06-10T06:26:41;16.30;1.00
26907;DHT22;14472;56.880;16.658;2023-06-10T06:29:07;16.30;1.00
26907;DHT22;14472;56.880;16.658;2023-06-10T06:31:36;16.40;1.00
26907;DHT22;14472;56.880;16.658;2023-06-10T06:34:02;16.50;1.00
26907;DHT22;14472;56.880;16.658;2023-06-10T06:36:27;16.50;1.00
26907;DHT22;14472;56.880;16.658;2023-06-10T06:38:53;16.50;1.00
26907;DHT22;14472;56.880;16.658;2023-06-10T06:41:19;16.50;1.00
26907;DHT22;14472;56.880;16.658;2023-06-10T06:43:45;16.60;1.00
26907;DHT22;14472;56.880;16.658;2023-06-10T06:46:10;16.70;1.00
26907;DHT22;14472;56.880;16.658;2023-06-10T06:48:36;16.80;1.00
26907;DHT22;14472;56.880;16.658;2023-06-10T06:51:02;16.90;1.00
26907;DHT22;14472;56.880;16.658;2023-06-10T06:53:28;16.90;1.00
26907;DHT22;14472;56.880;16.658;2023-06-10T06:55:53;17.00;1.00
26907;DHT22;14472;56.880;16.658;2023-06-10T06:58:19;17.10;1.00
26907;DHT22;14472;56.880;16.658;2023-06-10T07:00:45;17.10;1.00
26907;DHT22;14472;56.880;16.658;2023-06-10T07:03:11;17.20;1.00
26907;DHT22;14472;56.880;16.658;2023-06-10T07:05:38;17.20;1.00
26907;DHT22;14472;56.880;16.658;2023-06-10T07:08:04;17.20;1.00
26907;DHT22;14472;56.880;16.658;2023-06-10T07:10:30;17.30;1.00
26907;DHT22;14472;56.880;16.658;2023-06-10T07:12:57;17.40;1.00
26907;DHT22;14472;56.880;16.658;2023-06-10T07:15:23;17.40;1.00
26907;DHT22;14472;56.880;16.658;2023-06-10T07:17:49;17.50;1.00
26907;DHT22;14472;56.880;16.658;2023-06-10T07:20:15;17.60;1.00
26907;DHT22;14472;56.880;16.658;2023-06-10T07:22:42;17.70;1.00
26907;DHT22;14472;56.880;16.658;2023-06-10T07:25:08;17.70;1.00
26907;DHT22;14472;56.880;16.658;2023-06-10T07:27:34;17.80;1.00
26907;DHT22;14472;56.880;16.658;2023-06-10T07:30:01;17.80;1.00
26907;DHT22;14472;56.880;16.658;2023-06-10T07:32:27;17.90;1.00
26907;DHT22;14472;56.880;16.658;2023-06-10T07:34:53;18.00;1.00
26907;DHT22;14472;56.880;16.658;2023-06-10T07:37:18;18.10;1.00
26907;DHT22;14472;56.880;16.658;2023-06-10T07:39:45;18.10;1.00
26907;DHT22;14472;56.880;16.658;2023-06-10T07:42:11;18.20;1.00
26907;DHT22;14472;56.880;16.658;2023-06-10T07:44:36;18.20;1.00
26907;DHT22;14472;56.880;16.658;2023-06-10T07:47:02;18.20;1.00
26907;DHT22;14472;56.880;16.658;2023-06-10T07:49:28;18.30;1.00
26907;DHT22;14472;56.880;16.658;2023-06-10T07:51:54;18.30;1.00
26907;DHT22;14472;56.880;16.658;2023-06-10T07:54:21;18.40;1.00
26907;DHT22;14472;56.880;16.658;2023-06-10T07:56:47;18.40;1.00
26907;DHT22;14472;56.880;16.658;2023-06-10T07:59:14;18.50;1.00
26907;DHT22;14472;56.880;16.658;2023-06-10T08:01:39;18.50;1.00
26907;DHT22;14472;56.880;16.658;2023-06-10T08:04:06;18.50;1.00
26907;DHT22;14472;56.880;16.658;2023-06-10T08:06:32;18.50;1.00
26907;DHT22;14472;56.880;16.658;2023-06-10T08:08:57;18.60;1.00
26907;DHT22;14472;56.880;16.658;2023-06-10T08:11:23;18.60;1.00
26907;DHT22;14472;56.880;16.658;2023-06-10T08:13:49;18.60;1.00
26907;DHT22;14472;56.880;16.658;2023-06-10T08:16:15;18.70;1.00
26907;DHT22;14472;56.880;16.658;2023-06-10T08:18:41;18.70;1.00
26907;DHT22;14472;56.880;16.658;2023-06-10T08:21:07;18.70;1.00
26907;DHT22;14472;56.880;16.658;2023-06-10T08:23:33;18.70;1.00
26907;DHT22;14472;56.880;16.658;2023-06-10T08:25:58;18.70;1.00
26907;DHT22;14472;56.880;16.658;2023-06-10T08:28:24;18.70;1.00
26907;DHT22;14472;56.880;16.658;2023-06-10T08:30:50;18.70;1.00
26907;DHT22;14472;56.880;16.658;2023-06-10T08:33:16;18.70;1.00
26907;DHT22;14472;56.880;16.658;2023-06-10T08:35:41;18.80;1.00
26907;DHT22;14472;56.880;16.658;2023-06-10T08:38:07;18.70;1.00
26907;DHT22;14472;56.880;16.658;2023-06-10T08:40:33;18.80;1.00
26907;DHT22;14472;56.880;16.658;2023-06-10T08:43:19;18.80;1.00
26907;DHT22;14472;56.880;16.658;2023-06-10T08:45:48;18.80;1.00
26907;DHT22;14472;56.880;16.658;2023-06-10T08:48:17;18.90;1.00
26907;DHT22;14472;56.880;16.658;2023-06-10T08:50:44;18.90;1.00
26907;DHT22;14472;56.880;16.658;2023-06-10T08:53:14;19.00;1.00
26907;DHT22;14472;56.880;16.658;2023-06-10T08:55:46;19.00;1.00
26907;DHT22;14472;56.880;16.658;2023-06-10T08:58:15;19.10;1.00
26907;DHT22;14472;56.880;16.658;2023-06-10T09:00:41;19.20;1.00
26907;DHT22;14472;56.880;16.658;2023-06-10T09:03:08;19.20;1.00
26907;DHT22;14472;56.880;16.658;2023-06-10T09:05:34;19.30;1.00
26907;DHT22;14472;56.880;16.658;2023-06-10T09:08:02;19.30;1.00
26907;DHT22;14472;56.880;16.658;2023-06-10T09:10:27;19.30;1.00
26907;DHT22;14472;56.880;16.658;2023-06-10T09:12:54;19.40;1.00
26907;DHT22;14472;56.880;16.658;2023-06-10T09:15:20;19.20;1.00
26907;DHT22;14472;56.880;16.658;2023-06-10T09:17:46;19.30;1.00
26907;DHT22;14472;56.880;16.658;2023-06-10T09:20:12;19.20;1.00
26907;DHT22;14472;56.880;16.658;2023-06-10T09:22:38;19.20;1.00
26907;DHT22;14472;56.880;16.658;2023-06-10T09:25:10;19.20;1.00
26907;DHT22;14472;56.880;16.658;2023-06-10T09:27:52;19.30;1.00
26907;DHT22;14472;56.880;16.658;2023-06-10T09:30:26;19.30;1.00
26907;DHT22;14472;56.880;16.658;2023-06-10T09:32:56;19.40;1.00
26907;DHT22;14472;56.880;16.658;2023-06-10T09:35:23;19.50;1.00
26907;DHT22;14472;56.880;16.658;2023-06-10T09:37:54;19.50;1.00
26907;DHT22;14472;56.880;16.658;2023-06-10T09:40:20;19.40;1.00
26907;DHT22;14472;56.880;16.658;2023-06-10T09:42:46;19.30;1.00
26907;DHT22;14472;56.880;16.658;2023-06-10T09:45:20;19.30;1.00
26907;DHT22;14472;56.880;16.658;2023-06-10T09:47:54;19.20;1.00
26907;DHT22;14472;56.880;16.658;2023-06-10T09:50:21;19.10;1.00
26907;DHT22;14472;56.880;16.658;2023-06-10T09:52:47;19.10;1.00
26907;DHT22;14472;56.880;16.658;2023-06-10T09:55:14;19.20;1.00
26907;DHT22;14472;56.880;16.658;2023-06-10T09:57:40;19.30;1.00
26907;DHT22;14472;56.880;16.658;2023-06-10T10:00:08;19.10;1.00
26907;DHT22;14472;56.880;16.658;2023-06-10T10:02:49;19.10;1.00
26907;DHT22;14472;56.880;16.658;2023-06-10T10:05:16;19.10;1.00
26907;DHT22;14472;56.880;16.658;2023-06-10T10:07:43;19.00;1.00
26907;DHT22;14472;56.880;16.658;2023-06-10T10:10:10;19.10;1.00
26907;DHT22;14472;56.880;16.658;2023-06-10T10:12:38;19.00;1.00
26907;DHT22;14472;56.880;16.658;2023-06-10T10:15:08;18.90;1.00
26907;DHT22;14472;56.880;16.658;2023-06-10T10:17:40;18.90;1.00
26907;DHT22;14472;56.880;16.658;2023-06-10T10:20:09;18.90;1.00
26907;DHT22;14472;56.880;16.658;2023-06-10T10:22:40;19.00;1.00
26907;DHT22;14472;56.880;16.658;2023-06-10T10:25:16;19.00;1.00
26907;DHT22;14472;56.880;16.658;2023-06-10T10:27:51;19.00;1.00
26907;DHT22;14472;56.880;16.658;2023-06-10T10:30:20;19.10;1.00
26907;DHT22;14472;56.880;16.658;2023-06-10T10:33:00;19.10;1.00
26907;DHT22;14472;56.880;16.658;2023-06-10T10:35:32;19.20;1.00
26907;DHT22;14472;56.880;16.658;2023-06-10T10:37:58;19.10;1.00
26907;DHT22;14472;56.880;16.658;2023-06-10T10:40:26;19.10;1.00
26907;DHT22;14472;56.880;16.658;2023-06-10T10:42:56;19.20;1.00
26907;DHT22;14472;56.880;16.658;2023-06-10T10:45:22;19.30;1.00
26907;DHT22;14472;56.880;16.658;2023-06-10T10:47:52;19.50;1.00
26907;DHT22;14472;56.880;16.658;2023-06-10T10:50:21;19.60;1.00
26907;DHT22;14472;56.880;16.658;2023-06-10T10:52:54;19.60;1.00
26907;DHT22;14472;56.880;16.658;2023-06-10T10:55:22;19.60;1.00
26907;DHT22;14472;56.880;16.658;2023-06-10T10:58:05;19.70;1.00
26907;DHT22;14472;56.880;16.658;2023-06-10T11:00:32;19.80;1.00
26907;DHT22;14472;56.880;16.658;2023-06-10T11:03:07;19.80;1.00
26907;DHT22;14472;56.880;16.658;2023-06-10T11:08:08;20.00;1.00
26907;DHT22;14472;56.880;16.658;2023-06-10T11:10:37;20.10;1.00
26907;DHT22;14472;56.880;16.658;2023-06-10T11:13:15;20.10;1.00
26907;DHT22;14472;56.880;16.658;2023-06-10T11:15:46;20.10;1.00
26907;DHT22;14472;56.880;16.658;2023-06-10T11:26:18;20.00;1.00
26907;DHT22;14472;56.880;16.658;2023-06-10T11:31:31;20.00;1.00
26907;DHT22;14472;56.880;16.658;2023-06-10T11:34:01;19.90;1.00
26907;DHT22;14472;56.880;16.658;2023-06-10T11:36:29;20.00;1.00
26907;DHT22;14472;56.880;16.658;2023-06-10T11:39:00;20.00;1.00
26907;DHT22;14472;56.880;16.658;2023-06-10T11:41:27;20.10;1.00
26907;DHT22;14472;56.880;16.658;2023-06-10T11:44:13;20.10;1.00
26907;DHT22;14472;56.880;16.658;2023-06-10T11:46:39;20.00;1.00
26907;DHT22;14472;56.880;16.658;2023-06-10T11:49:06;20.00;1.00
26907;DHT22;14472;56.880;16.658;2023-06-10T11:51:36;20.00;1.00
26907;DHT22;14472;56.880;16.658;2023-06-10T11:54:04;20.10;1.00
26907;DHT22;14472;56.880;16.658;2023-06-10T11:56:31;20.10;1.00
26907;DHT22;14472;56.880;16.658;2023-06-10T11:59:04;20.20;1.00
26907;DHT22;14472;56.880;16.658;2023-06-10T12:01:35;20.10;1.00
26907;DHT22;14472;56.880;16.658;2023-06-10T12:04:04;20.10;1.00
26907;DHT22;14472;56.880;16.658;2023-06-10T12:09:24;20.20;1.00
26907;DHT22;14472;56.880;16.658;2023-06-10T12:11:57;20.10;1.00
26907;DHT22;14472;56.880;16.658;2023-06-10T12:17:46;20.10;1.00
26907;DHT22;14472;56.880;16.658;2023-06-10T12:20:26;20.20;1.00
26907;DHT22;14472;56.880;16.658;2023-06-10T12:22:53;20.30;1.00
26907;DHT22;14472;56.880;16.658;2023-06-10T12:25:25;20.20;1.00
26907;DHT22;14472;56.880;16.658;2023-06-10T12:27:53;20.40;1.00
26907;DHT22;14472;56.880;16.658;2023-06-10T12:30:20;20.30;1.00
26907;DHT22;14472;56.880;16.658;2023-06-10T12:32:47;20.40;1.00
26907;DHT22;14472;56.880;16.658;2023-06-10T12:35:21;20.30;1.00
26907;DHT22;14472;56.880;16.658;2023-06-10T12:38:01;20.40;1.00
26907;DHT22;14472;56.880;16.658;2023-06-10T12:40:39;20.40;1.00
26907;DHT22;14472;56.880;16.658;2023-06-10T12:43:09;20.30;1.00
26907;DHT22;14472;56.880;16.658;2023-06-10T12:45:36;20.40;1.00
26907;DHT22;14472;56.880;16.658;2023-06-10T12:48:16;20.40;1.00
26907;DHT22;14472;56.880;16.658;2023-06-10T12:50:43;20.50;1.00
26907;DHT22;14472;56.880;16.658;2023-06-10T12:53:10;20.50;1.00
26907;DHT22;14472;56.880;16.658;2023-06-10T12:55:39;20.70;1.00
26907;DHT22;14472;56.880;16.658;2023-06-10T12:58:05;20.70;1.00
26907;DHT22;14472;56.880;16.658;2023-06-10T13:00:31;20.70;1.00
26907;DHT22;14472;56.880;16.658;2023-06-10T13:02:57;20.70;1.00
26907;DHT22;14472;56.880;16.658;2023-06-10T13:05:23;20.70;1.00
26907;DHT22;14472;56.880;16.658;2023-06-10T13:07:49;20.60;1.00
26907;DHT22;14472;56.880;16.658;2023-06-10T13:10:16;20.60;1.00
26907;DHT22;14472;56.880;16.658;2023-06-10T13:12:43;20.60;1.00
26907;DHT22;14472;56.880;16.658;2023-06-10T13:15:09;20.70;1.00
26907;DHT22;14472;56.880;16.658;2023-06-10T13:17:35;20.60;1.00
26907;DHT22;14472;56.880;16.658;2023-06-10T13:20:05;20.60;1.00
26907;DHT22;14472;56.880;16.658;2023-06-10T13:22:31;20.60;1.00
26907;DHT22;14472;56.880;16.658;2023-06-10T13:25:05;20.60;1.00
26907;DHT22;14472;56.880;16.658;2023-06-10T13:27:35;20.60;1.00
26907;DHT22;14472;56.880;16.658;2023-06-10T13:30:05;20.70;1.00
26907;DHT22;14472;56.880;16.658;2023-06-10T13:32:31;20.70;1.00
26907;DHT22;14472;56.880;16.658;2023-06-10T13:34:57;20.70;1.00
26907;DHT22;14472;56.880;16.658;2023-06-10T13:37:23;20.70;1.00
26907;DHT22;14472;56.880;16.658;2023-06-10T13:39:48;20.70;1.00
26907;DHT22;14472;56.880;16.658;2023-06-10T13:42:19;20.80;1.00
26907;DHT22;14472;56.880;16.658;2023-06-10T13:44:46;20.70;1.00
26907;DHT22;14472;56.880;16.658;2023-06-10T13:47:13;20.70;1.00
26907;DHT22;14472;56.880;16.658;2023-06-10T13:49:39;20.80;1.00
26907;DHT22;14472;56.880;16.658;2023-06-10T13:52:06;20.70;1.00
26907;DHT22;14472;56.880;16.658;2023-06-10T13:54:32;20.70;1.00
26907;DHT22;14472;56.880;16.658;2023-06-10T13:56:58;20.70;1.00
26907;DHT22;14472;56.880;16.658;2023-06-10T13:59:24;20.70;1.00
26907;DHT22;14472;56.880;16.658;2023-06-10T14:01:50;20.60;1.00
26907;DHT22;14472;56.880;16.658;2023-06-10T14:04:16;20.60;1.00
26907;DHT22;14472;56.880;16.658;2023-06-10T14:06:41;20.60;1.00
26907;DHT22;14472;56.880;16.658;2023-06-10T14:09:07;20.60;1.00
26907;DHT22;14472;56.880;16.658;2023-06-10T14:11:33;20.70;1.00
26907;DHT22;14472;56.880;16.658;2023-06-10T14:13:59;20.80;1.00
26907;DHT22;14472;56.880;16.658;2023-06-10T14:16:26;20.80;1.00
26907;DHT22;14472;56.880;16.658;2023-06-10T14:18:52;20.70;1.00
26907;DHT22;14472;56.880;16.658;2023-06-10T14:21:18;20.70;1.00
26907;DHT22;14472;56.880;16.658;2023-06-10T14:23:43;20.60;1.00
26907;DHT22;14472;56.880;16.658;2023-06-10T14:26:10;20.60;1.00
26907;DHT22;14472;56.880;16.658;2023-06-10T14:28:35;20.60;1.00
26907;DHT22;14472;56.880;16.658;2023-06-10T14:31:01;20.70;1.00
26907;DHT22;14472;56.880;16.658;2023-06-10T14:33:28;20.80;1.00
26907;DHT22;14472;56.880;16.658;2023-06-10T14:35:54;20.80;1.00
26907;DHT22;14472;56.880;16.658;2023-06-10T14:38:20;20.80;1.00
26907;DHT22;14472;56.880;16.658;2023-06-10T14:40:45;20.80;1.00
26907;DHT22;14472;56.880;16.658;2023-06-10T14:43:11;20.70;1.00
26907;DHT22;14472;56.880;16.658;2023-06-10T14:45:39;20.70;1.00
26907;DHT22;14472;56.880;16.658;2023-06-10T14:48:05;20.80;1.00
26907;DHT22;14472;56.880;16.658;2023-06-10T14:50:31;20.70;1.00
26907;DHT22;14472;56.880;16.658;2023-06-10T14:52:58;20.70;1.00
26907;DHT22;14472;56.880;16.658;2023-06-10T14:55:24;20.70;1.00
26907;DHT22;14472;56.880;16.658;2023-06-10T14:57:50;20.80;1.00
26907;DHT22;14472;56.880;16.658;2023-06-10T15:00:16;20.80;1.00
26907;DHT22;14472;56.880;16.658;2023-06-10T15:02:46;20.80;1.00
26907;DHT22;14472;56.880;16.658;2023-06-10T15:05:14;20.80;1.00
26907;DHT22;14472;56.880;16.658;2023-06-10T15:07:44;20.70;1.00
26907;DHT22;14472;56.880;16.658;2023-06-10T15:10:10;20.70;1.00
26907;DHT22;14472;56.880;16.658;2023-06-10T15:12:36;20.70;1.00
26907;DHT22;14472;56.880;16.658;2023-06-10T15:15:02;20.80;1.00
26907;DHT22;14472;56.880;16.658;2023-06-10T15:17:28;20.80;1.00
26907;DHT22;14472;56.880;16.658;2023-06-10T15:19:54;20.70;1.00
26907;DHT22;14472;56.880;16.658;2023-06-10T15:22:20;20.60;1.00
26907;DHT22;14472;56.880;16.658;2023-06-10T15:24:46;20.60;1.00
26907;DHT22;14472;56.880;16.658;2023-06-10T15:27:11;20.60;1.00
26907;DHT22;14472;56.880;16.658;2023-06-10T15:29:37;20.60;1.00
26907;DHT22;14472;56.880;16.658;2023-06-10T15:32:03;20.60;1.00
26907;DHT22;14472;56.880;16.658;2023-06-10T15:34:29;20.70;1.00
26907;DHT22;14472;56.880;16.658;2023-06-10T15:36:55;20.50;1.00
26907;DHT22;14472;56.880;16.658;2023-06-10T15:39:21;20.40;1.00
26907;DHT22;14472;56.880;16.658;2023-06-10T15:41:47;20.40;1.00
26907;DHT22;14472;56.880;16.658;2023-06-10T15:44:13;20.30;1.00
26907;DHT22;14472;56.880;16.658;2023-06-10T15:46:38;20.20;1.00
26907;DHT22;14472;56.880;16.658;2023-06-10T15:49:04;20.20;1.00
26907;DHT22;14472;56.880;16.658;2023-06-10T15:51:30;20.30;1.00